Time;durP1;ratioP1;P1;durP2;ratioP2;P2;SDS_P1;SDS_P2;PMS_P1;PMS_P2;Temp;Humidity;BMP_temperature;BMP_pressure;BME280_temperature;BME280_humidity;BME280_pressure;Samples;Min_cycle;Max_cycle;Signal;HPM_P1;HPM_P2
2022/10/02 00:02:14;;;;;;;0.80;0.80;;;;;11.40;96276.00;;;;5115414;28;20341;-49
2022/10/02 00:04:48;;;;;;;0.63;0.63;;;;;11.40;96273.00;;;;5115260;28;20221;-49
2022/10/02 00:07:17;;;;;;;0.60;0.60;;;;;11.50;96272.00;;;;5115642;28;20193;-50
2022/10/02 00:09:49;;;;;;;0.50;0.50;;;;;11.60;96283.00;;;;5115118;28;20214;-50
2022/10/02 00:12:19;;;;;;;1.33;1.00;;;;;11.50;96280.00;;;;5115326;28;20198;-50
2022/10/02 00:14:50;;;;;;;0.60;0.60;;;;;11.60;96279.00;;;;5115292;28;20213;-55
2022/10/02 00:17:21;;;;;;;0.50;0.50;;;;;11.60;96262.00;;;;5115343;28;20261;-49
2022/10/02 00:19:51;;;;;;;0.80;0.80;;;;;11.40;96255.00;;;;5115108;28;20210;-50
2022/10/02 00:22:39;;;;;;;0.60;0.60;;;;;11.50;96252.00;;;;5115187;28;20206;-50
2022/10/02 00:25:16;;;;;;;0.60;0.60;;;;;11.50;96258.00;;;;5115252;28;20228;-53
2022/10/02 00:28:03;;;;;;;0.50;0.50;;;;;11.60;96271.00;;;;5097193;28;20244;-50
2022/10/02 00:30:36;;;;;;;0.43;0.43;;;;;11.70;96265.00;;;;5114996;28;20205;-50
2022/10/02 00:33:15;;;;;;;0.60;0.60;;;;;11.60;96286.00;;;;5115003;28;20195;-50
2022/10/02 00:36:13;;;;;;;0.67;0.67;;;;;11.60;96287.00;;;;5115181;28;20186;-51
2022/10/02 00:38:50;;;;;;;0.93;0.93;;;;;11.60;96277.00;;;;5114521;28;20214;-50
2022/10/02 00:41:50;;;;;;;0.63;0.63;;;;;11.60;96274.00;;;;5114832;28;20225;-50
2022/10/02 00:44:34;;;;;;;4.00;1.30;;;;;11.80;96280.00;;;;5114781;28;20205;-50
2022/10/02 00:47:09;;;;;;;0.83;0.80;;;;;11.80;96291.00;;;;5114655;28;20292;-50
2022/10/02 00:49:52;;;;;;;1.23;1.23;;;;;11.80;96296.00;;;;5114901;28;20197;-50
2022/10/02 00:52:35;;;;;;;1.47;1.10;;;;;11.80;96277.00;;;;5114141;28;20221;-50
2022/10/02 00:55:30;;;;;;;1.33;1.27;;;;;11.90;96289.00;;;;5114690;28;20218;-50
2022/10/02 00:58:13;;;;;;;1.23;1.23;;;;;12.00;96285.00;;;;5096756;28;20776;-50
2022/10/02 01:00:45;;;;;;;1.90;1.80;;;;;12.10;96294.00;;;;5114512;28;20253;-50
2022/10/02 01:03:17;;;;;;;0.50;0.50;;;;;12.10;96299.00;;;;5096489;28;20237;-50
2022/10/02 01:05:44;;;;;;;0.50;0.50;;;;;12.00;96298.00;;;;5096417;28;20241;-50
2022/10/02 01:08:12;;;;;;;0.60;0.60;;;;;12.00;96296.00;;;;5114567;28;20194;-49
2022/10/02 01:10:39;;;;;;;0.90;0.90;;;;;12.00;96300.00;;;;5114263;28;20544;-50
2022/10/02 01:13:07;;;;;;;0.80;0.80;;;;;12.00;96300.00;;;;5114377;28;20194;-50
2022/10/02 01:15:37;;;;;;;0.50;0.50;;;;;12.20;96311.00;;;;5114384;28;20202;-50
2022/10/02 01:18:06;;;;;;;11.90;1.77;;;;;12.20;96296.00;;;;5114183;28;20218;-50
2022/10/02 01:20:36;;;;;;;0.53;0.53;;;;;12.20;96306.00;;;;5114289;28;20214;-49
2022/10/02 01:23:23;;;;;;;1.00;0.90;;;;;12.30;96295.00;;;;5114161;28;20536;-49
2022/10/02 01:25:50;;;;;;;0.60;0.60;;;;;12.20;96290.00;;;;5114006;28;20226;-49
2022/10/02 01:28:17;;;;;;;0.70;0.70;;;;;12.20;96290.00;;;;5114163;28;20202;-50
2022/10/02 01:30:47;;;;;;;1.57;1.30;;;;;12.10;96291.00;;;;5114084;28;20197;-50
2022/10/02 01:33:15;;;;;;;0.60;0.60;;;;;12.10;96294.00;;;;5114129;28;20197;-50
2022/10/02 01:35:45;;;;;;;0.93;0.90;;;;;12.10;96288.00;;;;5113946;28;20225;-50
2022/10/02 01:38:19;;;;;;;1.20;1.20;;;;;12.10;96302.00;;;;5096114;28;20237;-51
2022/10/02 01:40:46;;;;;;;0.70;0.70;;;;;12.00;96293.00;;;;5095867;28;20197;-49
2022/10/02 01:43:16;;;;;;;0.70;0.70;;;;;12.10;96290.00;;;;5096145;28;20178;-48
2022/10/02 01:46:06;;;;;;;0.60;0.60;;;;;12.20;96302.00;;;;5113603;28;20222;-48
2022/10/02 01:48:41;;;;;;;0.40;0.40;;;;;12.20;96300.00;;;;5113682;28;20270;-48
2022/10/02 01:51:27;;;;;;;0.43;0.43;;;;;12.20;96298.00;;;;5095748;28;20266;-49
2022/10/02 01:54:07;;;;;;;1.57;1.47;;;;;12.10;96298.00;;;;5113533;28;20225;-48
2022/10/02 01:56:43;;;;;;;0.50;0.50;;;;;12.10;96303.00;;;;5113571;28;20675;-49
2022/10/02 01:59:19;;;;;;;0.80;0.80;;;;;11.90;96303.00;;;;5113465;28;20198;-48
2022/10/02 02:01:56;;;;;;;0.53;0.53;;;;;12.00;96311.00;;;;5113613;28;20193;-49
2022/10/02 02:04:30;;;;;;;0.57;0.57;;;;;11.90;96305.00;;;;5094549;28;20552;-49
2022/10/02 02:07:03;;;;;;;0.60;0.60;;;;;11.80;96297.00;;;;5113404;28;20196;-48
2022/10/02 02:09:37;;;;;;;0.90;0.90;;;;;11.80;96299.00;;;;5113372;28;20208;-48
2022/10/02 02:12:11;;;;;;;0.60;0.60;;;;;11.80;96297.00;;;;5113301;28;20218;-48
2022/10/02 02:14:44;;;;;;;0.70;0.70;;;;;11.70;96294.00;;;;5095220;28;20641;-48
2022/10/02 02:17:14;;;;;;;0.97;0.97;;;;;11.60;96302.00;;;;5113268;28;20516;-48
2022/10/02 02:19:46;;;;;;;2.10;0.97;;;;;11.80;96305.00;;;;5113277;28;20201;-48
2022/10/02 02:22:20;;;;;;;1.73;1.63;;;;;11.70;96308.00;;;;5113234;28;20232;-49
2022/10/02 02:24:51;;;;;;;0.70;0.70;;;;;11.70;96301.00;;;;5113161;28;20217;-48
2022/10/02 02:27:21;;;;;;;0.60;0.60;;;;;11.70;96305.00;;;;5113186;28;20193;-48
2022/10/02 02:29:53;;;;;;;1.33;1.23;;;;;11.60;96280.00;;;;5095132;28;20222;-47
2022/10/02 02:32:24;;;;;;;0.70;0.70;;;;;11.70;96271.00;;;;5095149;28;20220;-49
2022/10/02 02:34:56;;;;;;;0.50;0.50;;;;;11.80;96274.00;;;;5113196;28;20200;-49
2022/10/02 02:37:27;;;;;;;0.50;0.50;;;;;11.70;96268.00;;;;5113062;28;20220;-49
2022/10/02 02:39:56;;;;;;;1.33;1.23;;;;;11.70;96271.00;;;;5113105;28;20272;-49
2022/10/02 02:42:28;;;;;;;0.57;0.57;;;;;11.80;96280.00;;;;5112891;28;20214;-48
2022/10/02 02:45:00;;;;;;;1.07;1.07;;;;;11.70;96272.00;;;;5095068;28;20544;-48
2022/10/02 02:47:36;;;;;;;0.50;0.50;;;;;11.90;96282.00;;;;5112986;28;20241;-48
2022/10/02 02:50:08;;;;;;;1.50;1.40;;;;;11.80;96283.00;;;;5112989;28;20185;-48
2022/10/02 02:52:40;;;;;;;0.50;0.50;;;;;11.70;96291.00;;;;5112849;28;20194;-48
2022/10/02 02:55:12;;;;;;;0.90;0.90;;;;;11.80;96283.00;;;;5112735;28;20303;-48
2022/10/02 02:57:43;;;;;;;0.70;0.70;;;;;11.80;96298.00;;;;5112801;28;20210;-49
2022/10/02 03:00:14;;;;;;;0.60;0.60;;;;;11.90;96288.00;;;;5112713;28;20201;-48
2022/10/02 03:02:41;;;;;;;0.50;0.50;;;;;12.00;96304.00;;;;5094940;28;20233;-48
2022/10/02 03:05:14;;;;;;;0.97;0.97;;;;;12.00;96298.00;;;;5112594;28;20228;-48
2022/10/02 03:07:46;;;;;;;0.60;0.60;;;;;12.10;96295.00;;;;5094817;28;20216;-51
2022/10/02 03:10:18;;;;;;;1.67;1.10;;;;;12.10;96313.00;;;;5112825;28;20263;-51
2022/10/02 03:12:57;;;;;;;0.60;0.60;;;;;12.10;96303.00;;;;5112629;28;20222;-48
2022/10/02 03:15:29;;;;;;;0.53;0.53;;;;;12.20;96311.00;;;;5113151;28;20197;-48
2022/10/02 03:18:35;;;;;;;0.60;0.60;;;;;12.30;96302.00;;;;5116158;28;20186;-48
2022/10/02 03:21:09;;;;;;;0.60;0.60;;;;;12.30;96306.00;;;;5013971;28;20212;-48
2022/10/02 03:23:46;;;;;;;0.80;0.80;;;;;12.30;96309.00;;;;5013844;28;20228;-48
2022/10/02 03:26:20;;;;;;;0.80;0.80;;;;;12.30;96300.00;;;;5077593;28;20320;-48
2022/10/02 03:28:50;;;;;;;0.60;0.60;;;;;12.30;96304.00;;;;5115966;28;20617;-49
2022/10/02 03:31:19;;;;;;;0.53;0.53;;;;;12.10;96302.00;;;;5097810;28;20637;-49
2022/10/02 03:33:47;;;;;;;0.50;0.50;;;;;12.30;96294.00;;;;5097792;28;20194;-49
2022/10/02 03:36:16;;;;;;;1.10;1.10;;;;;12.10;96293.00;;;;5115769;28;20201;-50
2022/10/02 03:38:44;;;;;;;3.50;1.77;;;;;12.00;96299.00;;;;5115608;28;20305;-49
2022/10/02 03:41:11;;;;;;;0.50;0.50;;;;;12.10;96303.00;;;;5115616;28;20259;-49
2022/10/02 03:43:38;;;;;;;0.60;0.60;;;;;12.20;96299.00;;;;5115652;28;20217;-52
2022/10/02 03:46:05;;;;;;;14.50;0.87;;;;;12.30;96303.00;;;;5115557;28;20530;-49
2022/10/02 03:48:32;;;;;;;0.60;0.60;;;;;12.30;96303.00;;;;5097597;28;20206;-50
2022/10/02 03:50:59;;;;;;;1.07;1.07;;;;;12.20;96317.00;;;;5115575;28;20206;-49
2022/10/02 03:53:33;;;;;;;0.73;0.73;;;;;12.10;96304.00;;;;5115461;28;20186;-49
2022/10/02 03:56:04;;;;;;;3.50;0.97;;;;;12.10;96300.00;;;;5115458;28;20244;-50
2022/10/02 03:58:33;;;;;;;0.60;0.60;;;;;12.10;96308.00;;;;5097345;28;20213;-49
2022/10/02 04:01:07;;;;;;;0.90;0.90;;;;;12.20;96299.00;;;;5097353;28;20193;-49
2022/10/02 04:03:37;;;;;;;1.27;1.17;;;;;12.10;96307.00;;;;5097394;28;20284;-49
2022/10/02 04:06:08;;;;;;;0.70;0.70;;;;;12.10;96307.00;;;;5115317;28;20236;-50
2022/10/02 04:08:40;;;;;;;0.50;0.50;;;;;12.10;96310.00;;;;5115211;28;20228;-48
2022/10/02 04:11:15;;;;;;;0.73;0.73;;;;;12.20;96309.00;;;;5115231;28;20444;-50
2022/10/02 04:13:47;;;;;;;0.53;0.53;;;;;12.10;96303.00;;;;5115217;28;20218;-49
2022/10/02 04:16:17;;;;;;;0.53;0.53;;;;;12.10;96301.00;;;;5114294;28;20215;-49
2022/10/02 04:18:52;;;;;;;0.70;0.70;;;;;12.00;96268.00;;;;5115176;28;20205;-49
2022/10/02 04:21:34;;;;;;;0.50;0.50;;;;;11.90;96299.00;;;;5115058;28;20218;-49
2022/10/02 04:24:09;;;;;;;0.60;0.60;;;;;12.00;96307.00;;;;5097050;28;20198;-50
2022/10/02 04:26:41;;;;;;;0.57;0.57;;;;;12.00;96309.00;;;;5096511;28;20233;-50
2022/10/02 04:29:15;;;;;;;0.50;0.50;;;;;12.00;96310.00;;;;5114629;28;20190;-50
2022/10/02 04:31:50;;;;;;;1.10;1.10;;;;;12.00;96313.00;;;;5096796;28;20227;-50
2022/10/02 04:34:17;;;;;;;1.60;1.50;;;;;11.90;96308.00;;;;5097413;28;20518;-50
2022/10/02 04:37:01;;;;;;;1.13;1.13;;;;;11.80;96311.00;;;;5114869;28;20278;-49
2022/10/02 04:40:01;;;;;;;1.70;1.00;;;;;11.80;96297.00;;;;5114760;28;20717;-50
2022/10/02 04:42:44;;;;;;;0.77;0.77;;;;;11.70;96300.00;;;;5114748;28;20284;-50
2022/10/02 04:45:25;;;;;;;0.77;0.77;;;;;11.80;96292.00;;;;5114577;28;20674;-50
2022/10/02 04:48:13;;;;;;;0.47;0.47;;;;;11.80;96290.00;;;;5114716;28;20178;-50
2022/10/02 04:50:50;;;;;;;0.87;0.87;;;;;11.90;96284.00;;;;5109835;28;20665;-55
2022/10/02 04:53:32;;;;;;;1.07;0.83;;;;;11.90;96282.00;;;;5114794;28;20228;-50
2022/10/02 04:56:09;;;;;;;0.50;0.50;;;;;11.80;96277.00;;;;5114621;28;20194;-51
2022/10/02 04:58:49;;;;;;;1.20;1.20;;;;;11.90;96275.00;;;;5114630;28;20194;-52
2022/10/02 05:01:28;;;;;;;1.03;1.03;;;;;11.90;96280.00;;;;5114618;28;20239;-50
2022/10/02 05:04:21;;;;;;;0.50;0.50;;;;;12.10;96279.00;;;;5114415;28;20695;-50
2022/10/02 05:07:15;;;;;;;0.57;0.57;;;;;11.90;96276.00;;;;5114410;28;20272;-50
2022/10/02 05:09:52;;;;;;;0.73;0.73;;;;;11.90;96267.00;;;;5113560;28;20294;-53
2022/10/02 05:12:34;;;;;;;0.67;0.67;;;;;12.00;96270.00;;;;5114354;28;20378;-50
2022/10/02 05:15:19;;;;;;;0.57;0.57;;;;;12.00;96275.00;;;;5114445;28;20217;-51
2022/10/02 05:18:10;;;;;;;0.90;0.90;;;;;12.20;96272.00;;;;5114310;28;20218;-51
2022/10/02 05:21:02;;;;;;;0.60;0.60;;;;;12.10;96274.00;;;;5114597;28;20186;-50
2022/10/02 05:23:44;;;;;;;1.03;1.03;;;;;12.00;96265.00;;;;5114273;28;20224;-50
2022/10/02 05:26:30;;;;;;;0.80;0.80;;;;;11.80;96259.00;;;;5114079;28;20312;-50
2022/10/02 05:29:15;;;;;;;0.60;0.60;;;;;11.80;96275.00;;;;5114156;28;20523;-50
2022/10/02 05:31:55;;;;;;;0.80;0.80;;;;;11.80;96283.00;;;;5096144;28;20204;-51
2022/10/02 05:34:34;;;;;;;0.83;0.83;;;;;11.70;96275.00;;;;5114099;28;20214;-51
2022/10/02 05:37:20;;;;;;;1.40;1.40;;;;;11.50;96275.00;;;;5114055;28;20213;-50
2022/10/02 05:39:54;;;;;;;0.60;0.60;;;;;11.60;96264.00;;;;5113750;28;20279;-50
2022/10/02 05:42:30;;;;;;;1.07;1.03;;;;;11.70;96274.00;;;;5113845;28;20261;-50
2022/10/02 05:45:02;;;;;;;0.57;0.57;;;;;11.80;96279.00;;;;5113784;28;20213;-50
2022/10/02 05:47:34;;;;;;;1.30;1.23;;;;;11.80;96286.00;;;;5113989;28;20269;-49
2022/10/02 05:50:09;;;;;;;0.50;0.50;;;;;11.80;96291.00;;;;5113669;28;20198;-49
2022/10/02 05:52:40;;;;;;;0.57;0.57;;;;;11.80;96276.00;;;;5113760;28;20205;-50
2022/10/02 05:55:17;;;;;;;3.27;1.47;;;;;11.70;96287.00;;;;5113746;28;20276;-50
2022/10/02 05:57:50;;;;;;;0.50;0.50;;;;;11.70;96286.00;;;;5113817;28;20190;-50
2022/10/02 06:00:29;;;;;;;0.50;0.50;;;;;11.70;96293.00;;;;5113857;28;20233;-51
2022/10/02 06:03:08;;;;;;;0.70;0.70;;;;;11.60;96283.00;;;;5096163;28;20198;-50
2022/10/02 06:05:45;;;;;;;0.50;0.50;;;;;11.70;96301.00;;;;5113955;28;20765;-53
2022/10/02 06:08:15;;;;;;;0.97;0.97;;;;;11.70;96302.00;;;;5113693;28;20586;-50
2022/10/02 06:10:47;;;;;;;0.60;0.60;;;;;11.70;96290.00;;;;5113548;28;20216;-50
2022/10/02 06:13:22;;;;;;;0.80;0.80;;;;;11.70;96283.00;;;;5113438;28;20289;-50
2022/10/02 06:15:56;;;;;;;0.50;0.50;;;;;11.80;96277.00;;;;5113555;28;20193;-50
2022/10/02 06:18:28;;;;;;;1.47;1.37;;;;;11.80;96271.00;;;;5113434;28;20218;-51
2022/10/02 06:20:59;;;;;;;0.50;0.50;;;;;11.80;96274.00;;;;5113771;28;20190;-50
2022/10/02 06:23:31;;;;;;;1.50;0.70;;;;;11.70;96257.00;;;;5113438;28;20190;-50
2022/10/02 06:26:02;;;;;;;16.17;1.10;;;;;11.80;96244.00;;;;5095520;28;20247;-50
2022/10/02 06:28:37;;;;;;;0.60;0.60;;;;;11.80;96247.00;;;;5113488;28;20574;-50
2022/10/02 06:31:12;;;;;;;0.50;0.50;;;;;12.00;96233.00;;;;5113348;28;20305;-50
2022/10/02 06:33:39;;;;;;;0.70;0.70;;;;;12.00;96235.00;;;;5113521;28;20496;-50
2022/10/02 06:36:41;;;;;;;0.90;0.90;;;;;12.00;96222.00;;;;5113263;28;20220;-54
2022/10/02 06:39:21;;;;;;;0.80;0.80;;;;;12.00;96229.00;;;;5113328;28;20627;-50
2022/10/02 06:41:59;;;;;;;1.97;1.80;;;;;12.10;96230.00;;;;5095199;28;20625;-52
2022/10/02 06:44:34;;;;;;;1.03;1.03;;;;;12.10;96228.00;;;;5095375;28;20210;-49
2022/10/02 06:47:17;;;;;;;0.87;0.87;;;;;12.30;96220.00;;;;5094988;28;20316;-49
2022/10/02 06:50:01;;;;;;;0.50;0.50;;;;;12.30;96228.00;;;;5113321;28;20191;-50
2022/10/02 06:52:39;;;;;;;0.77;0.77;;;;;12.30;96241.00;;;;5116746;28;20228;-50
2022/10/02 06:55:24;;;;;;;0.80;0.80;;;;;12.30;96231.00;;;;5116714;28;20205;-49
2022/10/02 06:58:04;;;;;;;1.23;1.13;;;;;12.30;96234.00;;;;5098562;28;20290;-50
2022/10/02 07:00:35;;;;;;;0.70;0.70;;;;;12.40;96242.00;;;;5116593;28;20510;-49
2022/10/02 07:03:30;;;;;;;1.80;1.07;;;;;12.50;96243.00;;;;5116508;28;20641;-51
2022/10/02 07:06:20;;;;;;;0.60;0.60;;;;;12.50;96245.00;;;;5098487;28;20229;-52
2022/10/02 07:09:27;;;;;;;1.37;1.27;;;;;12.50;96248.00;;;;5116485;28;20232;-54
2022/10/02 07:12:04;;;;;;;8.40;2.17;;;;;12.50;96232.00;;;;5116488;28;20193;-55
2022/10/02 07:14:45;;;;;;;1.30;1.20;;;;;12.50;96230.00;;;;5098379;28;20217;-53
2022/10/02 07:17:28;;;;;;;0.77;0.77;;;;;12.60;96229.00;;;;5115474;28;20202;-51
2022/10/02 07:20:25;;;;;;;1.70;1.13;;;;;12.60;96220.00;;;;5116396;28;20218;-51
2022/10/02 07:23:12;;;;;;;0.90;0.90;;;;;12.60;96221.00;;;;5108009;28;20329;-51
2022/10/02 07:26:21;;;;;;;1.30;1.27;;;;;12.70;96216.00;;;;5116224;28;20226;-52
2022/10/02 07:28:57;;;;;;;0.63;0.60;;;;;12.80;96220.00;;;;5056404;28;20599;-52
2022/10/02 07:31:34;;;;;;;0.60;0.60;;;;;12.80;96207.00;;;;5098214;28;20217;-51
2022/10/02 07:34:11;;;;;;;0.53;0.53;;;;;12.70;96197.00;;;;5116204;28;20331;-52
2022/10/02 07:36:48;;;;;;;0.67;0.67;;;;;12.80;96195.00;;;;5116058;28;20322;-58
2022/10/02 07:39:30;;;;;;;0.50;0.50;;;;;12.90;96202.00;;;;5116015;28;20251;-52
2022/10/02 07:42:30;;;;;;;3.30;2.00;;;;;12.90;96203.00;;;;5116035;28;20226;-56
2022/10/02 07:45:25;;;;;;;1.40;0.83;;;;;13.00;96208.00;;;;5090515;28;20206;-59
2022/10/02 07:48:10;;;;;;;1.10;1.00;;;;;13.00;96210.00;;;;5097967;28;20221;-51
2022/10/02 07:50:52;;;;;;;1.67;1.57;;;;;13.10;96213.00;;;;5115831;28;20205;-52
2022/10/02 07:53:27;;;;;;;0.90;0.90;;;;;13.20;96209.00;;;;5115672;28;20657;-51
2022/10/02 07:55:55;;;;;;;0.80;0.80;;;;;13.30;96209.00;;;;5115661;28;20209;-50
2022/10/02 07:58:30;;;;;;;1.40;1.27;;;;;13.30;96204.00;;;;5097812;28;20554;-50
2022/10/02 08:01:00;;;;;;;2.00;1.90;;;;;13.40;96197.00;;;;5115798;28;20280;-51
2022/10/02 08:03:34;;;;;;;1.17;1.13;;;;;13.50;96204.00;;;;5114243;28;20224;-50
2022/10/02 08:06:02;;;;;;;0.77;0.77;;;;;13.70;96208.00;;;;5115651;28;20225;-50
2022/10/02 08:08:38;;;;;;;2.90;1.57;;;;;13.60;96206.00;;;;5115550;28;20253;-51
2022/10/02 08:11:10;;;;;;;0.53;0.53;;;;;13.70;96197.00;;;;5115712;28;20189;-55
2022/10/02 08:13:42;;;;;;;0.60;0.60;;;;;13.70;96198.00;;;;5115627;28;20249;-52
2022/10/02 08:16:12;;;;;;;1.13;1.13;;;;;13.70;96203.00;;;;5115484;28;20250;-52
2022/10/02 08:18:43;;;;;;;0.70;0.70;;;;;13.90;96204.00;;;;5115351;28;20600;-51
2022/10/02 08:21:14;;;;;;;0.77;0.77;;;;;13.80;96204.00;;;;5115389;28;20220;-51
2022/10/02 08:23:46;;;;;;;0.63;0.63;;;;;13.90;96210.00;;;;5115260;28;20221;-51
2022/10/02 08:26:21;;;;;;;0.70;0.70;;;;;14.10;96200.00;;;;5115294;28;20721;-50
2022/10/02 08:28:55;;;;;;;0.90;0.90;;;;;14.20;96190.00;;;;5115080;28;21248;-50
2022/10/02 08:31:22;;;;;;;0.70;0.70;;;;;14.40;96194.00;;;;5115146;28;20197;-50
2022/10/02 08:33:50;;;;;;;1.00;1.00;;;;;14.70;96188.00;;;;5115066;28;20269;-51
2022/10/02 08:36:59;;;;;;;0.77;0.77;;;;;14.70;96192.00;;;;5115164;28;20206;-54
2022/10/02 08:39:49;;;;;;;0.67;0.63;;;;;15.10;96187.00;;;;5114515;28;20226;-52
2022/10/02 08:43:07;;;;;;;0.73;0.73;;;;;15.30;96181.00;;;;5101929;28;20561;-52
2022/10/02 08:46:10;;;;;;;0.50;0.50;;;;;15.30;96178.00;;;;5114741;28;20237;-54
2022/10/02 08:49:24;;;;;;;0.50;0.50;;;;;15.60;96173.00;;;;5114821;28;20178;-52
2022/10/02 08:52:53;;;;;;;0.73;0.73;;;15.90;93.70;15.30;96172.00;;;;5114825;28;20621;-52
2022/10/02 08:55:53;;;;;;;0.50;0.50;;;;;15.20;96162.00;;;;5114681;28;20217;-52
2022/10/02 08:59:08;;;;;;;0.40;0.40;;;15.60;95.30;15.10;96170.00;;;;5114693;28;20210;-52
2022/10/02 09:02:26;;;;;;;0.50;0.50;;;15.90;94.70;15.40;96176.00;;;;5114557;28;20226;-52
2022/10/02 09:05:30;;;;;;;1.33;1.23;;;15.90;94.30;15.50;96166.00;;;;5114457;28;20556;-52
2022/10/02 09:09:02;;;;;;;0.50;0.50;;;16.10;94.40;15.60;96158.00;;;;5114557;28;20823;-53
2022/10/02 09:12:07;;;;;;;0.50;0.50;;;;;15.70;96174.00;;;;5114427;28;20691;-52
2022/10/02 09:14:49;;;;;;;0.60;0.60;;;;;15.80;96175.00;;;;5112933;28;20216;-52
2022/10/02 09:17:32;;;;;;;0.50;0.50;;;;;15.90;96165.00;;;;5114383;28;20202;-52
2022/10/02 09:20:24;;;;;;;0.73;0.73;;;;;16.00;96171.00;;;;5114338;28;20190;-52
2022/10/02 09:23:38;;;;;;;0.50;0.50;;;;;16.30;96179.00;;;;5096556;28;20609;-52
2022/10/02 09:26:19;;;;;;;0.50;0.50;;;;;16.30;96179.00;;;;5114189;28;20221;-53
2022/10/02 09:29:15;;;;;;;0.70;0.70;;;;;16.30;96171.00;;;;5096348;28;20197;-52
2022/10/02 09:32:27;;;;;;;0.50;0.50;;;;;16.20;96157.00;;;;5114115;28;20217;-52
2022/10/02 09:35:11;;;;;;;0.40;0.40;;;;;16.20;96171.00;;;;5114078;28;20202;-52
2022/10/02 09:38:05;;;;;;;0.50;0.50;;;;;16.40;96160.00;;;;5095978;28;20673;-52
2022/10/02 09:41:04;;;;;;;0.50;0.50;;;;;16.30;96171.00;;;;5114060;28;20220;-53
2022/10/02 09:44:18;;;;;;;0.50;0.50;;;16.80;88.80;16.20;96169.00;;;;5114057;28;20205;-53
2022/10/02 09:47:39;;;;;;;0.40;0.40;;;16.70;88.20;16.20;96176.00;;;;5113755;28;20660;-52
2022/10/02 09:50:33;;;;;;;0.40;0.40;;;;;16.30;96168.00;;;;5114107;28;20213;-56
2022/10/02 09:53:40;;;;;;;0.50;0.50;;;16.80;88.50;16.30;96172.00;;;;5113777;28;20218;-56
2022/10/02 09:56:48;;;;;;;0.33;0.33;;;;;16.30;96208.00;;;;5113889;28;20246;-54
2022/10/02 09:59:40;;;;;;;0.43;0.43;;;;;16.30;96173.00;;;;5113756;28;20213;-52
2022/10/02 10:03:12;;;;;;;0.50;0.50;;;17.00;86.50;16.50;96160.00;;;;5113760;28;20198;-52
2022/10/02 10:06:31;;;;;;;0.47;0.47;;;17.10;85.50;16.70;96162.00;;;;5113716;28;20216;-52
2022/10/02 10:09:51;;;;;;;0.50;0.50;;;17.30;85.00;17.10;96145.00;;;;5095476;28;20293;-53
2022/10/02 10:13:13;;;;;;;0.30;0.30;;;17.70;82.50;17.50;96157.00;;;;5095594;28;20686;-52
2022/10/02 10:16:40;;;;;;;0.40;0.40;;;17.90;81.30;17.60;96175.00;;;;5011463;28;20748;-53
2022/10/02 10:19:45;;;;;;;0.50;0.50;;;17.90;81.30;17.40;96183.00;;;;5113598;28;20190;-53
2022/10/02 10:22:57;;;;;;;0.40;0.40;;;17.70;81.20;17.10;96175.00;;;;5113368;28;20229;-52
2022/10/02 10:26:04;;;;;;;0.50;0.50;;;17.50;81.40;16.90;96157.00;;;;5113804;28;20308;-52
2022/10/02 10:29:02;;;;;;;0.57;0.57;;;17.50;81.90;17.30;96153.00;;;;5117258;28;20225;-55
2022/10/02 10:32:26;;;;;;;0.50;0.50;;;17.70;79.80;17.20;96156.00;;;;5117261;28;20255;-53
2022/10/02 10:35:23;;;;;;;0.40;0.40;;;17.70;81.70;17.40;96155.00;;;;5116958;28;20543;-52
2022/10/02 10:38:33;;;;;;;0.50;0.50;;;17.90;79.70;17.60;96169.00;;;;5116913;28;20675;-53
2022/10/02 10:41:37;;;;;;;0.53;0.53;;;17.90;80.10;17.40;96178.00;;;;5113620;28;20608;-52
2022/10/02 10:44:52;;;;;;;0.40;0.40;;;17.90;78.70;17.60;96175.00;;;;5098695;28;20551;-52
2022/10/02 10:47:57;;;;;;;0.33;0.33;;;17.80;80.20;17.30;96173.00;;;;5108206;28;20660;-52
2022/10/02 10:50:41;;;;;;;0.40;0.40;;;17.90;80.00;17.50;96166.00;;;;5116758;28;20196;-52
2022/10/02 10:53:28;;;;;;;0.40;0.40;;;;;17.40;96157.00;;;;5116694;28;20213;-52
2022/10/02 10:56:37;;;;;;;0.40;0.40;;;;;17.40;96164.00;;;;5116625;28;20198;-52
2022/10/02 10:59:34;;;;;;;0.60;0.60;;;;;17.40;96173.00;;;;5116435;28;20225;-53
2022/10/02 11:02:35;;;;;;;0.50;0.50;;;17.80;78.80;17.40;96178.00;;;;5073021;28;20250;-52
2022/10/02 11:05:49;;;;;;;0.40;0.40;;;18.30;79.30;17.50;96193.00;;;;5116488;28;20589;-52
2022/10/02 11:08:53;;;;;;;0.40;0.40;;;17.80;78.60;17.40;96167.00;;;;5116370;28;20278;-52
2022/10/02 11:11:26;;;;;;;0.50;0.50;;;18.10;77.30;17.80;96169.00;;;;5116573;28;20194;-52
2022/10/02 11:14:25;;;;;;;0.43;0.43;;;18.20;77.70;17.80;96171.00;;;;5098434;28;20211;-52
2022/10/02 11:17:31;;;;;;;0.40;0.40;;;18.20;78.40;17.70;96181.00;;;;5116330;28;20215;-52
2022/10/02 11:20:30;;;;;;;0.50;0.50;;;18.20;78.60;17.60;96179.00;;;;5116254;28;20249;-52
2022/10/02 11:23:45;;;;;;;0.47;0.47;;;18.10;80.60;17.80;96168.00;;;;5116232;28;20214;-53
2022/10/02 11:26:41;;;;;;;0.40;0.40;;;18.20;78.40;18.00;96146.00;;;;5115979;28;20270;-52
2022/10/02 11:29:50;;;;;;;0.47;0.47;;;18.30;79.50;18.00;96150.00;;;;5116216;28;20657;-53
2022/10/02 11:32:54;;;;;;;0.43;0.43;;;18.10;79.40;17.50;96180.00;;;;5099589;28;20210;-53
2022/10/02 11:35:31;;;;;;;0.40;0.40;;;17.80;81.60;17.10;96168.00;;;;5115986;28;20299;-52
2022/10/02 11:38:26;;;;;;;0.73;0.73;;;;;17.00;96182.00;;;;5115766;28;20234;-52
2022/10/02 11:41:09;;;;;;;0.50;0.50;;;;;16.90;96189.00;;;;5097777;28;20316;-52
2022/10/02 11:43:58;;;;;;;0.70;0.70;;;;;16.80;96181.00;;;;5097822;28;20629;-52
2022/10/02 11:46:47;;;;;;;0.30;0.30;;;;;17.20;96169.00;;;;5115724;28;20245;-52
2022/10/02 11:49:30;;;;;;;0.43;0.43;;;;;16.90;96186.00;;;;5115910;28;20190;-52
2022/10/02 11:52:10;;;;;;;0.50;0.50;;;;;16.40;96166.00;;;;5115764;28;20226;-53
2022/10/02 11:54:47;;;;;;;0.50;0.50;;;;;15.90;96173.00;;;;5115811;28;20206;-56
2022/10/02 11:57:28;;;;;;;0.50;0.50;;;;;15.60;96185.00;;;;5097688;28;20258;-54
2022/10/02 12:00:14;;;;;;;0.60;0.60;;;;;15.40;96197.00;;;;5115767;28;20178;-52
2022/10/02 12:02:54;;;;;;;0.43;0.43;;;;;15.10;96194.00;;;;5115627;28;20656;-53
2022/10/02 12:05:44;;;;;;;0.50;0.50;;;;;14.90;96204.00;;;;5097613;28;20198;-52
2022/10/02 12:08:18;;;;;;;0.50;0.50;;;;;14.70;96199.00;;;;5115472;28;20491;-52
2022/10/02 12:10:52;;;;;;;0.40;0.40;;;;;14.60;96204.00;;;;5115579;28;20254;-53
2022/10/02 12:13:39;;;;;;;0.40;0.40;;;;;14.60;96213.00;;;;5115355;28;20232;-53
2022/10/02 12:16:13;;;;;;;0.50;0.50;;;;;14.60;96199.00;;;;5115530;28;20643;-53
2022/10/02 12:18:51;;;;;;;0.40;0.40;;;;;14.60;96200.00;;;;5115136;28;20224;-52
2022/10/02 12:27:35;;;;;;;0.40;0.40;;;;;14.50;96200.00;;;;5114090;28;20225;-52
2022/10/02 12:30:07;;;;;;;0.53;0.53;;;;;14.50;96205.00;;;;5097074;28;20640;-54
2022/10/02 12:32:45;;;;;;;0.47;0.47;;;;;14.50;96191.00;;;;5115061;28;20689;-52
2022/10/02 12:35:38;;;;;;;0.50;0.50;;;;;14.60;96209.00;;;;5115232;28;20272;-57
2022/10/02 12:38:16;;;;;;;0.50;0.50;;;;;14.60;96204.00;;;;5114963;28;20205;-54
2022/10/02 12:40:49;;;;;;;0.50;0.50;;;;;14.50;96202.00;;;;5115071;28;20589;-53
2022/10/02 12:43:38;;;;;;;0.50;0.50;;;;;14.50;96196.00;;;;5115132;28;20190;-56
2022/10/02 12:46:44;;;;;;;0.50;0.50;;;;;14.40;96211.00;;;;5115087;28;20224;-54
2022/10/02 12:49:27;;;;;;;0.50;0.50;;;;;14.30;96222.00;;;;5114135;28;20705;-58
2022/10/02 12:52:26;;;;;;;0.50;0.50;;;;;14.10;96217.00;;;;5114930;28;20258;-58
2022/10/02 12:55:36;;;;;;;0.40;0.40;;;;;14.10;96220.00;;;;5114825;28;20206;-54
2022/10/02 12:58:13;;;;;;;0.50;0.50;;;;;14.20;96230.00;;;;5114926;28;20219;-57
2022/10/02 13:01:13;;;;;;;0.40;0.40;;;;;14.20;96222.00;;;;5114796;28;20220;-54
2022/10/02 13:04:19;;;;;;;0.43;0.43;;;;;14.30;96232.00;;;;5114848;28;20202;-57
2022/10/02 13:07:34;;;;;;;0.50;0.50;;;;;14.30;96232.00;;;;5096742;28;20217;-52
2022/10/02 13:10:07;;;;;;;0.50;0.50;;;;;14.30;96219.00;;;;5116064;28;20241;-52
2022/10/02 13:12:54;;;;;;;0.40;0.40;;;;;14.40;96215.00;;;;5115585;28;20274;-53
2022/10/02 13:15:36;;;;;;;0.50;0.50;;;;;14.40;96215.00;;;;5115952;28;20226;-52
2022/10/02 13:18:31;;;;;;;0.50;0.50;;;;;14.50;96222.00;;;;5116103;28;20186;-55
2022/10/02 13:21:08;;;;;;;0.40;0.40;;;;;14.60;96217.00;;;;5115279;28;20575;-57
2022/10/02 13:23:43;;;;;;;0.40;0.40;;;;;14.70;96219.00;;;;5115711;28;20188;-54
2022/10/02 13:26:21;;;;;;;0.70;0.70;;;;;14.80;96232.00;;;;5116121;28;20300;-53
2022/10/02 13:29:13;;;;;;;0.50;0.50;;;;;14.70;96217.00;;;;5114595;28;20288;-52
2022/10/02 13:31:58;;;;;;;0.40;0.40;;;;;14.50;96213.00;;;;5114156;28;20252;-52